createdAt,value
2018-10-05T00:00:50.636Z,0.00
2018-10-05T00:01:50.609Z,0.00
2018-10-05T00:02:50.586Z,0.00
2018-10-05T00:03:50.564Z,0.00
2018-10-05T00:04:50.565Z,0.00
2018-10-05T00:05:50.522Z,0.00
2018-10-05T00:06:50.496Z,0.00
2018-10-05T00:07:50.469Z,0.00
2018-10-05T00:08:50.448Z,0.00
2018-10-05T00:09:50.432Z,0.00
2018-10-05T00:10:50.412Z,0.00
2018-10-05T00:11:50.383Z,0.00
2018-10-05T00:12:50.375Z,0.00
2018-10-05T00:13:50.336Z,0.00
2018-10-05T00:14:50.319Z,0.00
2018-10-05T00:15:50.304Z,0.00
2018-10-05T00:16:50.267Z,0.00
2018-10-05T00:17:50.246Z,0.00
2018-10-05T00:18:50.223Z,0.00
2018-10-05T00:19:50.196Z,0.00
2018-10-05T00:20:50.174Z,0.00
2018-10-05T00:21:50.171Z,0.00
2018-10-05T00:22:50.129Z,0.00
2018-10-05T00:23:50.113Z,0.00
2018-10-05T00:24:50.094Z,0.00
2018-10-05T00:25:50.068Z,0.00
2018-10-05T00:26:50.039Z,0.00
2018-10-05T00:27:50.015Z,0.00
2018-10-05T00:28:50.001Z,0.00
2018-10-05T00:29:49.975Z,0.00
2018-10-05T00:30:49.957Z,0.00
2018-10-05T00:31:49.935Z,0.00
2018-10-05T00:32:49.908Z,0.00
2018-10-05T00:33:49.879Z,0.00
2018-10-05T00:34:49.865Z,0.00
2018-10-05T00:35:49.834Z,0.00
2018-10-05T00:36:49.812Z,0.00
2018-10-05T00:37:49.826Z,0.00
2018-10-05T00:38:49.768Z,0.00
2018-10-05T00:39:49.742Z,0.00
2018-10-05T00:40:49.719Z,0.00
2018-10-05T00:41:49.703Z,0.00
2018-10-05T00:42:49.677Z,0.00
2018-10-05T00:43:49.658Z,0.00
2018-10-05T00:44:49.629Z,0.00
2018-10-05T00:45:49.613Z,0.00
2018-10-05T00:46:49.597Z,0.00
2018-10-05T00:47:49.561Z,0.00
2018-10-05T00:48:49.545Z,0.00
2018-10-05T00:49:49.516Z,0.00
2018-10-05T00:50:49.493Z,0.00
2018-10-05T00:51:49.471Z,0.00
2018-10-05T00:52:49.515Z,0.00
2018-10-05T00:53:49.429Z,0.00
2018-10-05T00:54:49.402Z,0.00
2018-10-05T00:55:49.379Z,0.00
2018-10-05T00:56:49.363Z,0.00
2018-10-05T00:57:49.334Z,0.00
2018-10-05T00:58:49.309Z,0.00
2018-10-05T00:59:49.288Z,0.00
2018-10-05T01:00:49.264Z,0.00
2018-10-05T01:01:49.251Z,0.00
2018-10-05T01:02:49.226Z,0.00
2018-10-05T01:03:49.201Z,0.00
2018-10-05T01:04:49.171Z,0.00
2018-10-05T01:05:49.152Z,0.00
2018-10-05T01:06:49.130Z,0.00
2018-10-05T01:07:49.104Z,0.00
2018-10-05T01:08:49.096Z,0.00
2018-10-05T01:09:49.066Z,0.00
2018-10-05T01:10:49.037Z,0.00
2018-10-05T01:11:49.012Z,0.00
2018-10-05T01:12:48.989Z,0.00
2018-10-05T01:13:48.970Z,0.00
2018-10-05T01:14:48.945Z,0.00
2018-10-05T01:15:48.925Z,0.00
2018-10-05T01:16:48.906Z,0.00
2018-10-05T01:17:48.877Z,0.00
2018-10-05T01:18:48.893Z,0.00
2018-10-05T01:19:48.836Z,0.00
2018-10-05T01:20:48.817Z,0.00
2018-10-05T01:21:48.789Z,0.00
2018-10-05T01:22:48.770Z,0.00
2018-10-05T01:23:48.754Z,0.00
2018-10-05T01:24:48.786Z,0.00
2018-10-05T01:25:48.700Z,0.00
2018-10-05T01:26:48.681Z,0.00
2018-10-05T01:27:48.647Z,0.00
2018-10-05T01:28:48.639Z,0.00
2018-10-05T01:29:48.606Z,0.00
2018-10-05T01:30:48.579Z,0.00
2018-10-05T01:31:48.582Z,0.00
2018-10-05T01:32:48.544Z,0.00
2018-10-05T01:33:48.518Z,0.00
2018-10-05T01:34:48.493Z,0.00
2018-10-05T01:35:48.464Z,0.00
2018-10-05T01:36:48.448Z,0.00
2018-10-05T01:37:48.422Z,0.00
2018-10-05T01:38:48.412Z,0.00
2018-10-05T01:39:48.374Z,0.00
2018-10-05T01:40:48.348Z,0.00
2018-10-05T01:41:48.332Z,0.00
2018-10-05T01:42:48.309Z,0.00
2018-10-05T01:43:48.284Z,0.00
2018-10-05T01:44:48.255Z,0.00
2018-10-05T01:45:48.246Z,0.00
2018-10-05T01:46:48.217Z,0.00
2018-10-05T01:47:48.191Z,0.00
2018-10-05T01:48:48.180Z,0.00
2018-10-05T01:49:48.144Z,0.00
2018-10-05T01:50:48.124Z,0.00
2018-10-05T01:51:48.096Z,0.00
2018-10-05T01:52:48.075Z,0.00
2018-10-05T01:53:48.059Z,0.00
2018-10-05T01:54:48.030Z,0.00
2018-10-05T01:55:48.003Z,0.00
2018-10-05T01:56:47.986Z,0.00
2018-10-05T01:57:47.957Z,0.00
2018-10-05T01:58:47.936Z,0.00
2018-10-05T01:59:47.917Z,0.00
2018-10-05T02:00:47.894Z,0.00
2018-10-05T02:01:47.888Z,0.00
2018-10-05T02:02:47.846Z,0.00
2018-10-05T02:03:47.820Z,0.00
2018-10-05T02:04:47.797Z,0.00
2018-10-05T02:05:47.775Z,0.00
2018-10-05T02:06:47.757Z,0.00
2018-10-05T02:07:47.733Z,0.00
2018-10-05T02:08:47.708Z,0.00
2018-10-05T02:09:47.688Z,0.00
2018-10-05T02:10:47.659Z,0.00
2018-10-05T02:11:47.637Z,0.00
2018-10-05T02:12:47.614Z,0.00
2018-10-05T02:13:47.592Z,0.00
2018-10-05T02:14:47.573Z,0.00
2018-10-05T02:15:47.544Z,0.00
2018-10-05T02:16:47.522Z,0.00
2018-10-05T02:17:47.506Z,0.00
2018-10-05T02:18:47.484Z,0.00
2018-10-05T02:19:47.457Z,0.00
2018-10-05T02:20:47.429Z,0.00
2018-10-05T02:21:47.413Z,0.00
2018-10-05T02:22:47.384Z,0.00
2018-10-05T02:23:47.364Z,0.00
2018-10-05T02:24:47.343Z,0.00
2018-10-05T02:25:47.314Z,0.00
2018-10-05T02:26:47.291Z,0.00
2018-10-05T02:27:47.266Z,0.00
2018-10-05T02:28:47.249Z,0.00
2018-10-05T02:29:47.217Z,0.00
2018-10-05T02:30:47.197Z,0.00
2018-10-05T02:31:47.181Z,0.00
2018-10-05T02:32:47.214Z,0.00
2018-10-05T02:33:47.136Z,0.00
2018-10-05T02:34:47.107Z,0.00
2018-10-05T02:35:47.085Z,0.00
2018-10-05T02:36:47.073Z,0.00
2018-10-05T02:37:47.037Z,0.00
2018-10-05T02:38:47.018Z,0.00
2018-10-05T02:39:46.990Z,0.00
2018-10-05T02:40:46.977Z,0.00
2018-10-05T02:41:46.974Z,0.00
2018-10-05T02:42:46.926Z,0.00
2018-10-05T02:43:46.897Z,0.00
2018-10-05T02:44:46.875Z,0.00
2018-10-05T02:45:46.853Z,0.00
2018-10-05T02:46:46.828Z,0.00
2018-10-05T02:47:46.808Z,0.00
2018-10-05T02:48:46.781Z,0.00
2018-10-05T02:49:46.757Z,0.00
2018-10-05T02:50:46.736Z,0.00
2018-10-05T02:51:46.721Z,0.00
2018-10-05T02:52:46.689Z,0.00
2018-10-05T02:53:46.677Z,0.00
2018-10-05T02:54:46.644Z,0.00
2018-10-05T02:55:46.626Z,0.00
2018-10-05T02:56:46.594Z,0.00
2018-10-05T02:57:46.597Z,0.00
2018-10-05T02:58:46.561Z,0.00
2018-10-05T02:59:46.529Z,0.00
2018-10-05T03:00:46.507Z,0.00
2018-10-05T03:01:46.478Z,0.00
2018-10-05T03:02:46.456Z,0.00
2018-10-05T03:03:46.437Z,0.00
2018-10-05T03:04:46.417Z,0.00
2018-10-05T03:05:46.390Z,0.00
2018-10-05T03:06:46.365Z,0.00
2018-10-05T03:07:46.339Z,0.00
2018-10-05T03:08:46.320Z,0.00
2018-10-05T03:09:46.296Z,0.00
2018-10-05T03:10:46.275Z,0.00
2018-10-05T03:11:46.252Z,0.00
2018-10-05T03:12:46.223Z,0.00
2018-10-05T03:13:46.213Z,0.00
2018-10-05T03:14:46.193Z,0.00
2018-10-05T03:15:46.167Z,0.00
2018-10-05T03:16:46.131Z,0.00
2018-10-05T03:17:46.109Z,0.00
2018-10-05T03:18:46.086Z,0.00
2018-10-05T03:19:46.092Z,0.00
2018-10-05T03:20:46.042Z,0.00
2018-10-05T03:21:46.023Z,0.00
2018-10-05T03:22:45.993Z,0.00
2018-10-05T03:23:45.976Z,0.00
2018-10-05T03:24:45.958Z,0.00
2018-10-05T03:25:45.922Z,0.00
2018-10-05T03:26:45.905Z,0.00
2018-10-05T03:27:45.882Z,0.00
2018-10-05T03:28:45.865Z,0.00
2018-10-05T03:29:45.839Z,0.00
2018-10-05T03:30:45.819Z,0.00
2018-10-05T03:31:45.796Z,0.00
2018-10-05T03:32:45.777Z,0.00
2018-10-05T03:33:45.747Z,0.00
2018-10-05T03:34:45.719Z,0.00
2018-10-05T03:35:45.694Z,0.00
2018-10-05T03:36:45.671Z,0.00
2018-10-05T03:37:45.665Z,0.00
2018-10-05T03:38:45.626Z,0.00
2018-10-05T03:39:45.608Z,0.00
2018-10-05T03:40:45.584Z,0.00
2018-10-05T03:41:45.560Z,0.00
2018-10-05T03:42:45.551Z,0.00
2018-10-05T03:43:45.510Z,0.00
2018-10-05T03:44:45.491Z,0.00
2018-10-05T03:45:45.462Z,0.00
2018-10-05T03:46:45.445Z,0.00
2018-10-05T03:47:45.417Z,0.00
2018-10-05T03:48:45.400Z,0.00
2018-10-05T03:49:45.372Z,0.00
2018-10-05T03:50:45.356Z,0.00
2018-10-05T03:51:45.333Z,0.00
2018-10-05T03:52:45.315Z,0.00
2018-10-05T03:53:45.282Z,0.00
2018-10-05T03:54:45.256Z,0.00
2018-10-05T03:55:45.234Z,0.00
2018-10-05T03:56:45.211Z,0.00
2018-10-05T03:57:45.185Z,0.00
2018-10-05T03:58:45.166Z,0.00
2018-10-05T03:59:45.144Z,0.00
2018-10-05T04:00:45.116Z,0.00
2018-10-05T04:01:45.103Z,0.00
2018-10-05T04:02:45.083Z,0.00
2018-10-05T04:03:45.050Z,0.00
2018-10-05T04:04:45.032Z,0.00
2018-10-05T04:05:45.008Z,0.00
2018-10-05T04:06:44.985Z,0.00
2018-10-05T04:07:44.955Z,0.00
2018-10-05T04:08:44.932Z,0.00
2018-10-05T04:09:44.913Z,0.00
2018-10-05T04:10:44.885Z,0.00
2018-10-05T04:11:44.866Z,0.00
2018-10-05T04:12:44.844Z,0.00
2018-10-05T04:13:44.830Z,0.00
2018-10-05T04:14:44.796Z,0.00
2018-10-05T04:15:44.782Z,0.00
2018-10-05T04:16:44.752Z,0.00
2018-10-05T04:17:44.729Z,0.00
2018-10-05T04:18:44.727Z,0.00
2018-10-05T04:19:44.679Z,0.00
2018-10-05T04:20:44.656Z,0.00
2018-10-05T04:21:44.631Z,0.00
2018-10-05T04:22:44.608Z,0.00
2018-10-05T04:23:44.596Z,0.00
2018-10-05T04:24:44.561Z,0.00
2018-10-05T04:25:44.539Z,0.00
2018-10-05T04:26:44.526Z,0.00
2018-10-05T04:27:44.494Z,0.00
2018-10-05T04:28:44.474Z,0.00
2018-10-05T04:29:44.459Z,0.00
2018-10-05T04:30:44.427Z,0.00
2018-10-05T04:31:44.401Z,0.00
2018-10-05T04:32:44.379Z,0.00
2018-10-05T04:33:44.353Z,0.00
2018-10-05T04:34:44.340Z,0.00
2018-10-05T04:35:44.409Z,0.00
2018-10-05T04:36:44.286Z,0.00
2018-10-05T04:37:44.268Z,0.00
2018-10-05T04:38:44.239Z,0.00
2018-10-05T04:39:44.242Z,0.00
2018-10-05T04:40:44.200Z,0.00
2018-10-05T04:41:44.178Z,0.00
2018-10-05T04:42:44.149Z,0.00
2018-10-05T04:43:44.130Z,0.00
2018-10-05T04:44:44.108Z,0.00
2018-10-05T04:45:44.085Z,0.00
2018-10-05T04:46:44.063Z,0.00
2018-10-05T04:47:44.037Z,0.00
2018-10-05T04:48:44.018Z,0.00
2018-10-05T04:49:44.075Z,0.00
2018-10-05T04:50:43.965Z,0.00
2018-10-05T04:51:43.942Z,0.00
2018-10-05T04:52:43.923Z,0.00
2018-10-05T04:53:43.901Z,0.00
2018-10-05T04:54:43.879Z,0.00
2018-10-05T04:55:43.856Z,0.00
2018-10-05T04:56:43.848Z,0.00
2018-10-05T04:57:43.828Z,0.00
2018-10-05T04:58:43.796Z,4.00
2018-10-05T04:59:43.765Z,4.00
2018-10-05T05:00:43.745Z,0.00
2018-10-05T05:01:43.727Z,4.00
2018-10-05T05:02:43.697Z,4.00
2018-10-05T05:03:43.689Z,4.00
2018-10-05T05:04:43.665Z,8.00
2018-10-05T05:05:43.633Z,8.00
2018-10-05T05:06:43.607Z,8.00
2018-10-05T05:07:43.587Z,8.00
2018-10-05T05:08:43.568Z,12.00
2018-10-05T05:09:43.549Z,12.00
2018-10-05T05:10:43.523Z,20.00
2018-10-05T05:11:43.501Z,20.00
2018-10-05T05:12:43.477Z,24.00
2018-10-05T05:13:43.453Z,28.00
2018-10-05T05:14:43.434Z,36.00
2018-10-05T05:15:43.408Z,40.00
2018-10-05T05:16:43.387Z,48.00
2018-10-05T05:17:43.367Z,56.00
2018-10-05T05:18:43.359Z,68.00
2018-10-05T05:19:43.331Z,76.00
2018-10-05T05:20:43.301Z,84.00
2018-10-05T05:21:43.280Z,100.00
2018-10-05T05:22:43.256Z,112.00
2018-10-05T05:23:43.234Z,128.00
2018-10-05T05:24:43.211Z,148.00
2018-10-05T05:25:43.188Z,164.00
2018-10-05T05:26:43.165Z,184.00
2018-10-05T05:27:43.143Z,204.00
2018-10-05T05:28:43.127Z,224.00
2018-10-05T05:29:43.108Z,248.00
2018-10-05T05:30:43.076Z,272.00
2018-10-05T05:31:43.062Z,296.00
2018-10-05T05:32:43.035Z,324.00
2018-10-05T05:33:43.161Z,352.00
2018-10-05T05:34:42.988Z,380.00
2018-10-05T05:35:42.969Z,412.00
2018-10-05T05:36:42.944Z,440.00
2018-10-05T05:37:42.922Z,476.00
2018-10-05T05:38:42.899Z,508.00
2018-10-05T05:39:42.883Z,540.00
2018-10-05T05:40:42.861Z,576.00
2018-10-05T05:41:42.832Z,608.00
2018-10-05T05:42:42.810Z,644.00
2018-10-05T05:43:42.794Z,680.00
2018-10-05T05:44:42.771Z,712.00
2018-10-05T05:45:42.751Z,744.00
2018-10-05T05:46:42.781Z,780.00
2018-10-05T05:47:42.704Z,816.00
2018-10-05T05:48:42.681Z,852.00
2018-10-05T05:49:42.656Z,884.00
2018-10-05T05:50:42.630Z,916.00
2018-10-05T05:51:42.609Z,952.00
2018-10-05T05:52:42.588Z,988.00
2018-10-05T05:53:42.572Z,1028.00
2018-10-05T05:54:42.540Z,1064.00
2018-10-05T05:55:42.518Z,1096.00
2018-10-05T05:56:42.495Z,1124.00
2018-10-05T05:57:42.482Z,1156.00
2018-10-05T05:58:42.460Z,1188.00
2018-10-05T05:59:42.434Z,1220.00
2018-10-05T06:00:42.412Z,1248.00
2018-10-05T06:01:42.393Z,1276.00
2018-10-05T06:02:42.362Z,1308.00
2018-10-05T06:03:42.347Z,1336.00
2018-10-05T06:04:42.318Z,1364.00
2018-10-05T06:05:42.305Z,1388.00
2018-10-05T06:06:42.276Z,1420.00
2018-10-05T06:07:42.260Z,1448.00
2018-10-05T06:08:42.238Z,1484.00
2018-10-05T06:09:42.209Z,1520.00
2018-10-05T06:10:42.184Z,1572.00
2018-10-05T06:11:42.175Z,1616.00
2018-10-05T06:12:42.143Z,1648.00
2018-10-05T06:13:42.124Z,1676.00
2018-10-05T06:14:42.099Z,1704.00
2018-10-05T06:15:42.076Z,1728.00
2018-10-05T06:16:42.060Z,1752.00
2018-10-05T06:17:42.037Z,1772.00
2018-10-05T06:18:42.018Z,1796.00
2018-10-05T06:19:41.998Z,1824.00
2018-10-05T06:20:41.967Z,1848.00
2018-10-05T06:21:42.040Z,1872.00
2018-10-05T06:22:41.926Z,1896.00
2018-10-05T06:23:41.903Z,1916.00
2018-10-05T06:24:41.888Z,1940.00
2018-10-05T06:25:41.864Z,1960.00
2018-10-05T06:26:41.847Z,1984.00
2018-10-05T06:27:41.820Z,2004.00
2018-10-05T06:28:41.798Z,2020.00
2018-10-05T06:29:41.776Z,2044.00
2018-10-05T06:30:41.825Z,2064.00
2018-10-05T06:31:41.736Z,2084.00
2018-10-05T06:32:41.708Z,2104.00
2018-10-05T06:33:41.687Z,2124.00
2018-10-05T06:34:41.673Z,2144.00
2018-10-05T06:35:41.645Z,2168.00
2018-10-05T06:36:41.619Z,2188.00
2018-10-05T06:37:41.604Z,2204.00
2018-10-05T06:38:41.582Z,2228.00
2018-10-05T06:39:41.556Z,2248.00
2018-10-05T06:40:41.543Z,2268.00
2018-10-05T06:41:41.514Z,2288.00
2018-10-05T06:42:41.499Z,2312.00
2018-10-05T06:43:41.469Z,2328.00
2018-10-05T06:44:41.457Z,2344.00
2018-10-05T06:45:41.432Z,2360.00
2018-10-05T06:46:41.415Z,2376.00
2018-10-05T06:47:41.394Z,2400.00
2018-10-05T06:48:41.365Z,2412.00
2018-10-05T06:49:41.343Z,2428.00
2018-10-05T06:50:41.330Z,2444.00
2018-10-05T06:51:41.307Z,2460.00
2018-10-05T06:52:41.285Z,2472.00
2018-10-05T06:53:41.267Z,2484.00
2018-10-05T06:54:41.248Z,2496.00
2018-10-05T06:55:41.223Z,2508.00
2018-10-05T06:56:41.204Z,2516.00
2018-10-05T06:57:41.185Z,2528.00
2018-10-05T06:58:41.159Z,2540.00
2018-10-05T06:59:41.140Z,2556.00
2018-10-05T07:00:41.114Z,2568.00
2018-10-05T07:01:41.107Z,2580.00
2018-10-05T07:02:41.077Z,2592.00
2018-10-05T07:03:41.056Z,2604.00
2018-10-05T07:04:41.031Z,2616.00
2018-10-05T07:05:41.007Z,2636.00
2018-10-05T07:06:40.988Z,2652.00
2018-10-05T07:07:40.991Z,2668.00
2018-10-05T07:08:40.956Z,2688.00
2018-10-05T07:09:40.936Z,2712.00
2018-10-05T07:10:40.904Z,2732.00
2018-10-05T07:11:40.888Z,2748.00
2018-10-05T07:12:40.863Z,2768.00
2018-10-05T07:13:40.851Z,2788.00
2018-10-05T07:14:40.821Z,2804.00
2018-10-05T07:15:40.803Z,2836.00
2018-10-05T07:16:40.779Z,2864.00
2018-10-05T07:17:40.762Z,2880.00
2018-10-05T07:18:40.737Z,2900.00
2018-10-05T07:19:40.714Z,2944.00
2018-10-05T07:20:40.696Z,2976.00
2018-10-05T07:21:40.673Z,2976.00
2018-10-05T07:22:40.654Z,2960.00
2018-10-05T07:23:40.635Z,2976.00
2018-10-05T07:24:40.620Z,2996.00
2018-10-05T07:25:40.599Z,3044.00
2018-10-05T07:26:40.571Z,3108.00
2018-10-05T07:27:40.551Z,3236.00
2018-10-05T07:28:40.600Z,3520.00
2018-10-05T07:29:40.509Z,3752.00
2018-10-05T07:30:40.496Z,3756.00
2018-10-05T07:31:40.474Z,3576.00
2018-10-05T07:32:40.455Z,3544.00
2018-10-05T07:33:40.433Z,3568.00
2018-10-05T07:34:40.410Z,3592.00
2018-10-05T07:35:40.387Z,3640.00
2018-10-05T07:36:40.379Z,3712.00
2018-10-05T07:37:40.355Z,3776.00
2018-10-05T07:38:40.336Z,3900.00
2018-10-05T07:39:40.314Z,4124.00
2018-10-05T07:40:40.288Z,4244.00
2018-10-05T07:41:40.272Z,4352.00
2018-10-05T07:42:40.256Z,4492.00
2018-10-05T07:43:40.234Z,4576.00
2018-10-05T07:44:40.227Z,4648.00
2018-10-05T07:45:40.202Z,4708.00
2018-10-05T07:46:40.185Z,4800.00
2018-10-05T07:47:40.157Z,4908.00
2018-10-05T07:48:40.143Z,4984.00
2018-10-05T07:49:40.140Z,5028.00
2018-10-05T07:50:40.115Z,5084.00
2018-10-05T07:51:40.102Z,4636.00
2018-10-05T07:52:40.077Z,5168.00
2018-10-05T07:53:40.051Z,5236.00
2018-10-05T07:54:40.054Z,5336.00
2018-10-05T07:55:40.020Z,5372.00
2018-10-05T07:56:40.001Z,5532.00
2018-10-05T07:57:40.094Z,5772.00
2018-10-05T07:58:39.963Z,6024.00
2018-10-05T07:59:39.948Z,6244.00
2018-10-05T08:00:39.940Z,6428.00
2018-10-05T08:01:39.915Z,6548.00
2018-10-05T08:02:39.899Z,6604.00
2018-10-05T08:03:39.889Z,6704.00
2018-10-05T08:04:39.874Z,6804.00
2018-10-05T08:05:39.859Z,6844.00
2018-10-05T08:06:39.841Z,7224.00
2018-10-05T08:07:39.825Z,7672.00
2018-10-05T08:08:39.813Z,7884.00
2018-10-05T08:09:39.873Z,8040.00
2018-10-05T08:10:39.779Z,8176.00
2018-10-05T08:11:39.766Z,8276.00
2018-10-05T08:12:39.753Z,8472.00
2018-10-05T08:13:39.730Z,8664.00
2018-10-05T08:14:39.721Z,8940.00
2018-10-05T08:15:39.709Z,9296.00
2018-10-05T08:16:39.692Z,9708.00
2018-10-05T08:17:39.679Z,9848.00
2018-10-05T08:18:39.663Z,9740.00
2018-10-05T08:19:39.641Z,9088.00
2018-10-05T08:20:39.631Z,10128.00
2018-10-05T08:21:39.717Z,10748.00
2018-10-05T08:22:39.609Z,10980.00
2018-10-05T08:23:39.593Z,11244.00
2018-10-05T08:24:39.575Z,11852.00
2018-10-05T08:25:39.561Z,12448.00
2018-10-05T08:26:39.549Z,12916.00
2018-10-05T08:27:39.533Z,13112.00
2018-10-05T08:28:39.520Z,13220.00
2018-10-05T08:29:39.513Z,13640.00
2018-10-05T08:30:39.491Z,14564.00
2018-10-05T08:31:39.487Z,20512.00
2018-10-05T08:32:39.465Z,33408.00
2018-10-05T08:33:39.455Z,37472.00
2018-10-05T08:34:39.551Z,34464.00
2018-10-05T08:35:39.430Z,30592.00
2018-10-05T08:36:39.411Z,32512.00
2018-10-05T08:37:39.409Z,35104.00
2018-10-05T08:38:39.392Z,36736.00
2018-10-05T08:39:39.387Z,36032.00
2018-10-05T08:40:39.363Z,32672.00
2018-10-05T08:41:39.352Z,31456.00
2018-10-05T08:42:39.361Z,30720.00
2018-10-05T08:43:39.318Z,30272.00
2018-10-05T08:44:39.305Z,29280.00
2018-10-05T08:45:39.303Z,27616.00
2018-10-05T08:46:39.285Z,27360.00
2018-10-05T08:47:39.267Z,27936.00
2018-10-05T08:48:39.257Z,29760.00
2018-10-05T08:49:39.245Z,32608.00
2018-10-05T08:50:39.239Z,37888.00
2018-10-05T08:51:39.274Z,44352.00
2018-10-05T08:52:39.213Z,51872.00
2018-10-05T08:53:39.198Z,56448.00
2018-10-05T08:54:39.179Z,56160.00
2018-10-05T08:55:39.167Z,50176.00
2018-10-05T08:56:39.160Z,42400.00
2018-10-05T08:57:39.143Z,36000.00
2018-10-05T08:58:39.137Z,33408.00
2018-10-05T08:59:39.125Z,32064.00
2018-10-05T09:00:39.106Z,31712.00
2018-10-05T09:01:39.093Z,31360.00
2018-10-05T09:02:39.098Z,31552.00
2018-10-05T09:03:39.073Z,31328.00
2018-10-05T09:04:39.061Z,30432.00
2018-10-05T09:05:39.089Z,29760.00
2018-10-05T09:06:39.035Z,28928.00
2018-10-05T09:07:39.022Z,27904.00
2018-10-05T09:08:39.007Z,27328.00
2018-10-05T09:09:38.997Z,26752.00
2018-10-05T09:10:38.991Z,26432.00
2018-10-05T09:11:38.972Z,26016.00
2018-10-05T09:12:38.968Z,25824.00
2018-10-05T09:13:38.950Z,25504.00
2018-10-05T09:14:38.937Z,25440.00
2018-10-05T09:15:38.924Z,25408.00
2018-10-05T09:16:38.917Z,25248.00
2018-10-05T09:17:38.943Z,25120.00
2018-10-05T09:18:38.892Z,25088.00
2018-10-05T09:19:38.917Z,25056.00
2018-10-05T09:20:38.876Z,25024.00
2018-10-05T09:21:38.860Z,24928.00
2018-10-05T09:22:38.847Z,24992.00
2018-10-05T09:23:38.837Z,24800.00
2018-10-05T09:24:38.831Z,24736.00
2018-10-05T09:25:38.809Z,24704.00
2018-10-05T09:26:38.810Z,24768.00
2018-10-05T09:27:38.801Z,24960.00
2018-10-05T09:28:38.778Z,25184.00
2018-10-05T09:29:38.767Z,25248.00
2018-10-05T09:30:38.779Z,25312.00
2018-10-05T09:31:38.749Z,25568.00
2018-10-05T09:32:38.737Z,25632.00
2018-10-05T09:33:38.721Z,25600.00
2018-10-05T09:34:38.712Z,26016.00
2018-10-05T09:35:38.698Z,25984.00
2018-10-05T09:36:38.689Z,26368.00
2018-10-05T09:37:38.738Z,26368.00
2018-10-05T09:38:38.671Z,26592.00
2018-10-05T09:39:38.657Z,26656.00
2018-10-05T09:40:38.646Z,26912.00
2018-10-05T09:41:38.639Z,26944.00
2018-10-05T09:42:38.621Z,27104.00
2018-10-05T09:43:38.609Z,27168.00
2018-10-05T09:44:38.601Z,27552.00
2018-10-05T09:45:38.591Z,27872.00
2018-10-05T09:46:38.578Z,28288.00
2018-10-05T09:47:38.575Z,28384.00
2018-10-05T09:48:38.556Z,28928.00
2018-10-05T09:49:38.558Z,30656.00
2018-10-05T09:50:38.540Z,32832.00
2018-10-05T09:51:38.531Z,33088.00
2018-10-05T09:52:38.683Z,32480.00
2018-10-05T09:53:38.511Z,32416.00
2018-10-05T09:54:38.503Z,32736.00
2018-10-05T09:55:38.485Z,32512.00
2018-10-05T09:56:38.479Z,32704.00
2018-10-05T09:57:38.476Z,33056.00
2018-10-05T09:58:38.460Z,33408.00
2018-10-05T09:59:38.504Z,33536.00
2018-10-05T10:00:38.448Z,33504.00
2018-10-05T10:01:38.435Z,33536.00
2018-10-05T10:02:38.422Z,34016.00
2018-10-05T10:03:38.531Z,34080.00
2018-10-05T10:04:38.409Z,34368.00
2018-10-05T10:05:38.401Z,34496.00
2018-10-05T10:06:38.389Z,34912.00
2018-10-05T10:07:38.377Z,35072.00
2018-10-05T10:08:38.378Z,35328.00
2018-10-05T10:09:38.367Z,36096.00
2018-10-05T10:10:38.347Z,36992.00
2018-10-05T10:11:38.347Z,37824.00
2018-10-05T10:12:38.341Z,38688.00
2018-10-05T10:13:38.341Z,39744.00
2018-10-05T10:14:38.321Z,41728.00
2018-10-05T10:15:38.309Z,43072.00
2018-10-05T10:16:38.309Z,44864.00
2018-10-05T10:17:38.301Z,45856.00
2018-10-05T10:18:38.293Z,46240.00
2018-10-05T10:19:38.286Z,46752.00
2018-10-05T10:20:38.271Z,47904.00
2018-10-05T10:21:38.264Z,49024.00
2018-10-05T10:22:38.305Z,52960.00
2018-10-05T10:23:38.255Z,59200.00
2018-10-05T10:24:38.242Z,68672.00
2018-10-05T10:25:38.236Z,77280.00
2018-10-05T10:26:38.232Z,83296.00
2018-10-05T10:27:38.228Z,85344.00
2018-10-05T10:28:38.325Z,86464.00
2018-10-05T10:29:38.214Z,83264.00
2018-10-05T10:30:38.200Z,79520.00
2018-10-05T10:31:38.193Z,73440.00
2018-10-05T10:32:38.187Z,66976.00
2018-10-05T10:33:38.247Z,62656.00
2018-10-05T10:34:38.337Z,59584.00
2018-10-05T10:35:38.171Z,57312.00
2018-10-05T10:36:38.204Z,53280.00
2018-10-05T10:37:38.162Z,49280.00
2018-10-05T10:38:38.154Z,45152.00
2018-10-05T10:39:38.149Z,41728.00
2018-10-05T10:40:38.140Z,38624.00
2018-10-05T10:41:38.138Z,37216.00
2018-10-05T10:42:38.148Z,34912.00
2018-10-05T10:43:38.117Z,32736.00
2018-10-05T10:44:38.117Z,31488.00
2018-10-05T10:45:38.114Z,29440.00
2018-10-05T10:46:38.110Z,28160.00
2018-10-05T10:47:38.095Z,28096.00
2018-10-05T10:48:38.095Z,27168.00
2018-10-05T10:49:38.091Z,26144.00
2018-10-05T10:50:38.079Z,25920.00
2018-10-05T10:51:38.079Z,24896.00
2018-10-05T10:52:38.072Z,24032.00
2018-10-05T10:53:38.070Z,23008.00
2018-10-05T10:54:38.057Z,21408.00
2018-10-05T10:55:38.060Z,20768.00
2018-10-05T10:56:38.046Z,20480.00
2018-10-05T10:57:38.048Z,20064.00
2018-10-05T10:58:38.041Z,19456.00
2018-10-05T10:59:38.027Z,18976.00
2018-10-05T11:00:38.040Z,18688.00
2018-10-05T11:01:38.026Z,18528.00
2018-10-05T11:02:38.018Z,18336.00
2018-10-05T11:03:38.008Z,18048.00
2018-10-05T11:04:38.133Z,17760.00
2018-10-05T11:05:38.006Z,17536.00
2018-10-05T11:06:37.995Z,17312.00
2018-10-05T11:07:37.995Z,16980.00
2018-10-05T11:08:37.992Z,16804.00
2018-10-05T11:09:37.982Z,16792.00
2018-10-05T11:10:37.983Z,16660.00
2018-10-05T11:11:37.979Z,16556.00
2018-10-05T11:12:37.970Z,16412.00
2018-10-05T11:13:37.970Z,16484.00
2018-10-05T11:14:37.964Z,16376.00
2018-10-05T11:15:37.960Z,16332.00
2018-10-05T11:16:37.957Z,16108.00
2018-10-05T11:17:37.947Z,15920.00
2018-10-05T11:18:37.944Z,15824.00
2018-10-05T11:19:37.944Z,15736.00
2018-10-05T11:20:37.941Z,15608.00
2018-10-05T11:21:37.934Z,15564.00
2018-10-05T11:22:37.934Z,15520.00
2018-10-05T11:23:37.925Z,15608.00
2018-10-05T11:24:37.918Z,15608.00
2018-10-05T11:25:37.920Z,15828.00
2018-10-05T11:26:37.918Z,15772.00
2018-10-05T11:27:37.909Z,15864.00
2018-10-05T11:28:37.915Z,15940.00
2018-10-05T11:29:38.012Z,15892.00
2018-10-05T11:30:37.906Z,15852.00
2018-10-05T11:31:37.903Z,15736.00
2018-10-05T11:32:37.896Z,15668.00
2018-10-05T11:33:37.896Z,15820.00
2018-10-05T11:34:37.887Z,15976.00
2018-10-05T11:35:37.892Z,15828.00
2018-10-05T11:36:37.880Z,15920.00
2018-10-05T11:37:37.877Z,15864.00
2018-10-05T11:38:37.873Z,15920.00
2018-10-05T11:39:37.870Z,15928.00
2018-10-05T11:40:37.900Z,15928.00
2018-10-05T11:41:37.874Z,15908.00
2018-10-05T11:42:37.864Z,15968.00
2018-10-05T11:43:37.861Z,15928.00
2018-10-05T11:44:37.871Z,15740.00
2018-10-05T11:45:37.861Z,15456.00
2018-10-05T11:46:37.851Z,15552.00
2018-10-05T11:47:37.855Z,15708.00
2018-10-05T11:48:37.845Z,15388.00
2018-10-05T11:49:37.848Z,15304.00
2018-10-05T11:50:37.842Z,15212.00
2018-10-05T11:51:37.836Z,14968.00
2018-10-05T11:52:37.837Z,14824.00
2018-10-05T11:53:37.837Z,14820.00
2018-10-05T11:54:37.829Z,14776.00
2018-10-05T11:55:37.826Z,14772.00
2018-10-05T11:56:37.834Z,14736.00
2018-10-05T11:57:37.820Z,14572.00
2018-10-05T11:58:37.820Z,14544.00
2018-10-05T11:59:37.865Z,14680.00
2018-10-05T12:00:37.813Z,14680.00
2018-10-05T12:01:37.809Z,14640.00
2018-10-05T12:02:37.872Z,14340.00
2018-10-05T12:03:37.810Z,14080.00
2018-10-05T12:04:37.800Z,13952.00
2018-10-05T12:05:37.807Z,13920.00
2018-10-05T12:06:37.797Z,13808.00
2018-10-05T12:07:37.801Z,13688.00
2018-10-05T12:08:37.794Z,13800.00
2018-10-05T12:09:37.799Z,13796.00
2018-10-05T12:10:37.787Z,13624.00
2018-10-05T12:11:37.791Z,13420.00
2018-10-05T12:12:37.784Z,13400.00
2018-10-05T12:13:37.797Z,13276.00
2018-10-05T12:14:37.778Z,13024.00
2018-10-05T12:15:37.784Z,12720.00
2018-10-05T12:16:37.771Z,12404.00
2018-10-05T12:17:37.768Z,12272.00
2018-10-05T12:18:37.769Z,12132.00
2018-10-05T12:19:37.771Z,12072.00
2018-10-05T12:20:37.768Z,11956.00
2018-10-05T12:21:37.762Z,11868.00
2018-10-05T12:22:37.765Z,11776.00
2018-10-05T12:23:37.762Z,11704.00
2018-10-05T12:24:37.755Z,11664.00
2018-10-05T12:25:37.750Z,11608.00
2018-10-05T12:26:37.755Z,11216.00
2018-10-05T12:27:37.752Z,11524.00
2018-10-05T12:28:37.743Z,11500.00